Time,TemperatureF,DewpointF,PressureIn,WindDirection,WindDirectionDegrees,WindSpeedMPH,WindSpeedGustMPH,Humidity,HourlyPrecipIn,Conditions,Clouds,dailyrainin,SoftwareType,DateUTC
2013-05-29 00:03:00,50.4,32.9,29.78,SSW,199,0.0,0.0,51,0.00,,---,0.00,VWS V13.01,2013-05-29 05:03:00,
2013-05-29 00:08:00,50.4,32.9,29.78,SSW,199,0.0,0.0,51,0.00,,---,0.00,VWS V13.01,2013-05-29 05:08:00,
2013-05-29 00:13:00,50.4,32.9,29.81,SSW,199,0.0,0.0,51,0.00,,---,0.00,VWS V13.01,2013-05-29 05:13:00,
2013-05-29 00:18:00,50.4,32.9,29.81,SSW,199,0.0,0.0,51,0.00,,---,0.00,VWS V13.01,2013-05-29 05:18:00,
2013-05-29 00:23:00,50.4,32.9,29.81,SSW,199,0.0,0.0,51,0.00,,---,0.00,VWS V13.01,2013-05-29 05:23:00,
2013-05-29 00:28:00,50.5,32.6,29.81,SSW,199,0.0,0.0,50,0.00,,---,0.00,VWS V13.01,2013-05-29 05:28:00,
2013-05-29 00:33:00,50.5,32.6,29.81,SSW,199,0.0,0.0,50,0.00,,---,0.00,VWS V13.01,2013-05-29 05:33:00,
2013-05-29 00:38:00,50.7,32.8,29.81,SSW,199,0.0,0.0,50,0.00,,---,0.00,VWS V13.01,2013-05-29 05:38:00,
2013-05-29 00:44:00,50.9,33.4,29.78,SSW,199,0.0,0.0,51,0.00,,---,0.00,VWS V13.01,2013-05-29 05:44:00,
2013-05-29 00:49:00,50.9,32.9,29.78,SSW,199,0.0,0.0,50,0.00,,---,0.00,VWS V13.01,2013-05-29 05:49:00,
2013-05-29 00:54:00,51.1,33.1,29.78,SSW,199,0.0,0.0,50,0.00,,---,0.00,VWS V13.01,2013-05-29 05:54:00,
2013-05-29 00:59:00,51.3,33.3,29.78,SSW,199,0.0,0.0,50,0.00,,---,0.00,VWS V13.01,2013-05-29 05:59:00,
2013-05-29 01:04:00,51.3,32.8,29.78,SSW,199,0.0,0.0,49,0.00,,---,0.00,VWS V13.01,2013-05-29 06:04:00,
2013-05-29 01:09:00,51.4,32.9,29.78,SSW,199,0.0,0.0,49,0.00,,---,0.00,VWS V13.01,2013-05-29 06:09:00,
2013-05-29 01:14:00,51.4,32.9,29.78,SSW,199,0.0,0.0,49,0.00,,---,0.00,VWS V13.01,2013-05-29 06:14:00,
2013-05-29 01:19:00,51.6,33.1,29.78,SSW,199,0.0,0.0,49,0.00,,---,0.00,VWS V13.01,2013-05-29 06:19:00,
2013-05-29 01:24:00,51.6,33.1,29.78,SSW,199,0.0,0.0,49,0.00,,---,0.00,VWS V13.01,2013-05-29 06:24:00,
2013-05-29 01:30:00,51.8,32.8,29.81,SSW,199,0.0,0.0,48,0.00,,---,0.00,VWS V13.01,2013-05-29 06:30:00,
2013-05-29 01:35:00,52.0,32.9,29.81,SSW,199,0.0,0.0,48,0.00,,---,0.00,VWS V13.01,2013-05-29 06:35:00,
2013-05-29 01:40:00,52.2,33.1,29.81,SSW,199,0.0,0.0,48,0.00,,---,0.00,VWS V13.01,2013-05-29 06:40:00,
2013-05-29 01:45:00,52.3,33.2,29.81,WSW,247,0.0,0.0,48,0.00,,---,0.00,VWS V13.01,2013-05-29 06:45:00,
2013-05-29 01:50:00,52.7,33.6,29.81,WSW,247,0.0,0.0,48,0.00,,---,0.00,VWS V13.01,2013-05-29 06:50:00,
2013-05-29 01:55:00,53.1,34.4,29.81,WSW,247,0.0,0.0,49,0.00,,---,0.00,VWS V13.01,2013-05-29 06:55:00,
2013-05-29 02:00:00,53.2,34.6,29.81,WSW,247,0.0,0.0,49,0.00,,---,0.00,VWS V13.01,2013-05-29 07:00:00,
2013-05-29 02:05:00,53.4,34.8,29.81,WSW,247,0.0,0.0,49,0.00,,---,0.00,VWS V13.01,2013-05-29 07:05:00,
2013-05-29 02:11:00,53.6,34.9,29.81,WSW,247,0.0,0.0,49,0.00,,---,0.00,VWS V13.01,2013-05-29 07:11:00,
2013-05-29 02:16:00,54.0,36.3,29.81,SW,235,3.6,3.6,51,0.00,,---,0.00,VWS V13.01,2013-05-29 07:16:00,
2013-05-29 02:21:00,54.5,37.7,29.81,SW,220,4.0,4.0,53,0.00,,---,0.00,VWS V13.01,2013-05-29 07:21:00,
2013-05-29 02:26:00,54.9,38.5,29.81,SW,234,3.1,3.6,54,0.00,,---,0.00,VWS V13.01,2013-05-29 07:26:00,
2013-05-29 02:31:00,55.2,39.3,29.81,SW,234,0.0,0.0,55,0.00,,---,0.00,VWS V13.01,2013-05-29 07:31:00,
2013-05-29 02:36:00,55.2,39.3,29.81,SW,234,0.0,0.0,55,0.00,,---,0.00,VWS V13.01,2013-05-29 07:36:00,
2013-05-29 02:41:00,55.2,37.9,29.81,SW,234,0.0,0.0,52,0.00,,---,0.00,VWS V13.01,2013-05-29 07:41:00,
2013-05-29 02:46:00,54.9,36.1,29.78,SW,234,0.0,0.0,49,0.00,,---,0.00,VWS V13.01,2013-05-29 07:46:00,
2013-05-29 02:51:00,54.5,36.3,29.78,SW,234,0.0,0.0,50,0.00,,---,0.00,VWS V13.01,2013-05-29 07:51:00,
2013-05-29 02:56:00,54.3,36.1,29.78,SW,234,0.0,0.0,50,0.00,,---,0.00,VWS V13.01,2013-05-29 07:56:00,
2013-05-29 03:01:00,54.3,36.6,29.81,SW,234,0.0,0.0,51,0.00,,---,0.00,VWS V13.01,2013-05-29 08:01:00,
2013-05-29 03:07:00,54.3,36.6,29.81,SW,234,0.0,0.0,51,0.00,,---,0.00,VWS V13.01,2013-05-29 08:07:00,
2013-05-29 03:12:00,54.3,36.6,29.78,SW,234,0.0,0.0,51,0.00,,---,0.00,VWS V13.01,2013-05-29 08:12:00,
2013-05-29 03:17:00,54.3,37.1,29.78,SW,234,0.0,0.0,52,0.00,,---,0.00,VWS V13.01,2013-05-29 08:17:00,
2013-05-29 03:22:00,54.3,37.1,29.78,SW,234,0.0,0.0,52,0.00,,---,0.00,VWS V13.01,2013-05-29 08:22:00,
2013-05-29 03:27:00,54.3,37.1,29.81,West,280,0.0,0.0,52,0.00,,---,0.00,VWS V13.01,2013-05-29 08:27:00,
2013-05-29 03:32:00,54.3,37.6,29.81,West,280,0.0,0.0,53,0.00,,---,0.00,VWS V13.01,2013-05-29 08:32:00,
2013-05-29 03:37:00,54.5,38.2,29.81,West,280,0.0,0.0,54,0.00,,---,0.00,VWS V13.01,2013-05-29 08:37:00,
2013-05-29 03:42:00,54.7,38.8,29.81,West,280,0.0,0.0,55,0.00,,---,0.00,VWS V13.01,2013-05-29 08:42:00,
2013-05-29 03:47:00,54.9,39.5,29.81,West,280,0.0,0.0,56,0.00,,---,0.00,VWS V13.01,2013-05-29 08:47:00,
2013-05-29 03:52:00,54.9,39.9,29.81,West,280,0.0,0.0,57,0.00,,---,0.00,VWS V13.01,2013-05-29 08:52:00,
2013-05-29 03:57:00,54.9,39.9,29.78,West,280,0.0,0.0,57,0.00,,---,0.00,VWS V13.01,2013-05-29 08:57:00,
2013-05-29 04:02:00,55.0,40.5,29.78,West,280,0.0,0.0,58,0.00,,---,0.00,VWS V13.01,2013-05-29 09:02:00,
2013-05-29 04:07:00,55.0,40.5,29.78,West,280,0.0,0.0,58,0.00,,---,0.00,VWS V13.01,2013-05-29 09:07:00,
2013-05-29 04:13:00,55.0,41.0,29.78,West,280,0.0,0.0,59,0.00,,---,0.00,VWS V13.01,2013-05-29 09:13:00,
2013-05-29 04:18:00,55.0,41.0,29.78,West,280,0.0,0.0,59,0.00,,---,0.00,VWS V13.01,2013-05-29 09:18:00,
2013-05-29 04:23:00,55.0,41.0,29.78,West,280,0.0,0.0,59,0.00,,---,0.00,VWS V13.01,2013-05-29 09:23:00,
2013-05-29 04:28:00,55.0,41.4,29.81,West,280,0.0,0.0,60,0.00,,---,0.00,VWS V13.01,2013-05-29 09:28:00,
2013-05-29 04:33:00,55.0,41.4,29.81,West,280,3.1,3.1,60,0.00,,---,0.00,VWS V13.01,2013-05-29 09:33:00,
2013-05-29 04:38:00,55.0,42.3,29.81,West,280,2.7,3.6,62,0.00,,---,0.00,VWS V13.01,2013-05-29 09:38:00,
2013-05-29 04:43:00,55.0,42.3,29.81,West,280,0.0,0.0,62,0.00,,---,0.00,VWS V13.01,2013-05-29 09:43:00,
2013-05-29 04:48:00,55.2,42.9,29.81,West,280,0.0,0.0,63,0.00,,---,0.00,VWS V13.01,2013-05-29 09:48:00,
2013-05-29 04:54:00,55.2,42.9,29.81,West,280,0.0,0.0,63,0.00,,---,0.00,VWS V13.01,2013-05-29 09:54:00,
2013-05-29 04:59:00,55.2,42.9,29.81,West,280,0.0,0.0,63,0.00,,---,0.00,VWS V13.01,2013-05-29 09:59:00,
2013-05-29 05:04:00,55.2,43.3,29.81,West,280,0.0,0.0,64,0.00,,---,0.00,VWS V13.01,2013-05-29 10:04:00,
2013-05-29 05:09:00,55.2,43.7,29.81,West,280,0.0,0.0,65,0.00,,---,0.00,VWS V13.01,2013-05-29 10:09:00,
2013-05-29 05:14:00,55.2,43.7,29.81,West,280,0.0,0.0,65,0.00,,---,0.00,VWS V13.01,2013-05-29 10:14:00,
2013-05-29 05:19:00,55.2,43.7,29.81,West,280,0.0,0.0,65,0.00,,---,0.00,VWS V13.01,2013-05-29 10:19:00,
2013-05-29 05:24:00,55.0,43.5,29.81,West,280,0.0,0.0,65,0.00,,---,0.00,VWS V13.01,2013-05-29 10:24:00,
2013-05-29 05:29:00,55.0,43.9,29.81,West,280,0.0,0.0,66,0.00,,---,0.00,VWS V13.01,2013-05-29 10:29:00,
2013-05-29 05:34:00,55.0,44.3,29.81,West,280,0.0,0.0,67,0.00,,---,0.00,VWS V13.01,2013-05-29 10:34:00,
2013-05-29 05:40:00,55.2,44.5,29.81,West,280,0.0,0.0,67,0.00,,---,0.00,VWS V13.01,2013-05-29 10:40:00,
2013-05-29 05:45:00,55.4,44.6,29.81,West,280,0.0,0.0,67,0.00,,---,0.00,VWS V13.01,2013-05-29 10:45:00,
2013-05-29 05:50:00,55.4,45.0,29.81,West,280,0.0,0.0,68,0.00,,---,0.00,VWS V13.01,2013-05-29 10:50:00,
2013-05-29 05:55:00,55.6,45.6,29.81,West,280,0.0,0.0,69,0.00,,---,0.00,VWS V13.01,2013-05-29 10:55:00,
2013-05-29 06:00:00,55.6,45.6,29.84,West,280,0.0,2.7,69,0.00,,---,0.00,VWS V13.01,2013-05-29 11:00:00,
2013-05-29 06:05:00,55.8,45.8,29.84,West,280,4.5,4.5,69,0.00,,---,0.00,VWS V13.01,2013-05-29 11:05:00,
2013-05-29 06:10:00,55.9,46.3,29.84,West,280,0.0,0.0,70,0.00,,---,0.00,VWS V13.01,2013-05-29 11:10:00,
2013-05-29 06:15:00,56.1,46.5,29.84,West,280,3.1,4.5,70,0.00,,---,0.00,VWS V13.01,2013-05-29 11:15:00,
2013-05-29 06:20:00,56.3,47.0,29.84,West,280,3.6,4.5,71,0.00,,---,0.00,VWS V13.01,2013-05-29 11:20:00,
2013-05-29 06:25:00,56.3,47.0,29.84,West,280,0.0,0.0,71,0.00,,---,0.00,VWS V13.01,2013-05-29 11:25:00,
2013-05-29 06:30:00,56.5,47.2,29.84,West,280,3.6,4.0,71,0.00,,---,0.00,VWS V13.01,2013-05-29 11:30:00,
2013-05-29 06:35:00,56.5,47.6,29.84,WSW,237,3.6,3.6,72,0.00,,---,0.00,VWS V13.01,2013-05-29 11:35:00,
2013-05-29 06:40:00,56.7,47.8,29.84,WSW,241,0.0,0.0,72,0.00,,---,0.00,VWS V13.01,2013-05-29 11:40:00,
2013-05-29 06:45:00,56.8,48.3,29.84,SSW,200,4.0,4.0,73,0.00,,---,0.00,VWS V13.01,2013-05-29 11:45:00,
2013-05-29 06:50:00,57.0,48.5,29.84,SW,233,3.1,4.5,73,0.00,,---,0.00,VWS V13.01,2013-05-29 11:50:00,
2013-05-29 06:55:00,57.2,48.6,29.84,West,263,4.5,4.5,73,0.00,,---,0.00,VWS V13.01,2013-05-29 11:55:00,
2013-05-29 07:00:00,57.2,48.6,29.84,SW,224,3.1,5.6,73,0.00,,---,0.00,VWS V13.01,2013-05-29 12:00:00,
2013-05-29 07:06:00,57.2,48.6,29.84,WSW,237,3.6,4.0,73,0.00,,---,0.00,VWS V13.01,2013-05-29 12:06:00,
2013-05-29 07:11:00,57.4,48.8,29.84,WSW,250,2.7,3.1,73,0.00,,---,0.00,VWS V13.01,2013-05-29 12:11:00,
2013-05-29 07:16:00,57.6,48.6,29.84,WSW,250,0.0,0.0,72,0.00,,---,0.00,VWS V13.01,2013-05-29 12:16:00,
2013-05-29 07:21:00,57.7,48.8,29.84,WSW,250,0.0,3.6,72,0.00,,---,0.00,VWS V13.01,2013-05-29 12:21:00,
2013-05-29 07:26:00,57.9,49.0,29.84,SW,229,4.0,4.5,72,0.00,,---,0.00,VWS V13.01,2013-05-29 12:26:00,
2013-05-29 07:31:00,58.3,49.3,29.84,South,177,4.0,4.0,72,0.00,,---,0.00,VWS V13.01,2013-05-29 12:31:00,
2013-05-29 07:36:00,58.5,49.5,29.84,SW,219,0.0,3.1,72,0.00,,---,0.00,VWS V13.01,2013-05-29 12:36:00,
2013-05-29 07:41:00,58.6,49.3,29.84,West,259,0.0,0.0,71,0.00,,---,0.00,VWS V13.01,2013-05-29 12:41:00,
2013-05-29 07:46:00,59.0,49.2,29.84,West,259,0.0,4.7,70,0.00,,---,0.00,VWS V13.01,2013-05-29 12:46:00,
2013-05-29 07:51:00,59.4,49.6,29.84,West,278,3.6,3.6,70,0.00,,---,0.00,VWS V13.01,2013-05-29 12:51:00,
2013-05-29 07:56:00,59.7,49.2,29.84,West,264,4.0,4.0,68,0.00,,---,0.00,VWS V13.01,2013-05-29 12:56:00,
2013-05-29 08:01:00,59.9,48.5,29.84,WSW,252,4.0,4.0,66,0.00,,---,0.00,VWS V13.01,2013-05-29 13:01:00,
2013-05-29 08:06:00,60.1,48.3,29.84,South,172,4.7,5.6,65,0.00,,---,0.00,VWS V13.01,2013-05-29 13:06:00,
2013-05-29 08:11:00,60.1,47.5,29.84,South,183,0.0,0.0,63,0.00,,---,0.00,VWS V13.01,2013-05-29 13:11:00,
2013-05-29 08:16:00,60.3,47.6,29.84,SW,218,5.6,5.6,63,0.00,,---,0.00,VWS V13.01,2013-05-29 13:16:00,
2013-05-29 08:21:00,60.4,47.4,29.84,SW,222,0.0,0.0,62,0.00,,---,0.00,VWS V13.01,2013-05-29 13:21:00,
2013-05-29 08:26:00,60.6,47.5,29.84,SW,222,0.0,0.0,62,0.00,,---,0.00,VWS V13.01,2013-05-29 13:26:00,
2013-05-29 08:31:00,60.8,47.3,29.84,SSW,198,0.0,3.1,61,0.00,,---,0.00,VWS V13.01,2013-05-29 13:31:00,
2013-05-29 08:36:00,60.8,46.8,29.84,WSW,254,3.1,5.6,60,0.00,,---,0.00,VWS V13.01,2013-05-29 13:36:00,
2013-05-29 08:41:00,60.8,46.4,29.84,SW,217,4.5,4.7,59,0.00,,---,0.00,VWS V13.01,2013-05-29 13:41:00,
2013-05-29 08:46:00,60.8,46.4,29.84,West,268,0.0,2.7,59,0.00,,---,0.00,VWS V13.01,2013-05-29 13:46:00,
2013-05-29 08:51:00,60.8,46.4,29.84,West,268,0.0,4.5,59,0.00,,---,0.00,VWS V13.01,2013-05-29 13:51:00,
2013-05-29 08:56:00,61.0,46.6,29.84,SW,214,0.0,2.7,59,0.00,,---,0.00,VWS V13.01,2013-05-29 13:56:00,
2013-05-29 09:01:00,61.0,46.6,29.84,SSW,209,3.1,5.6,59,0.00,,---,0.00,VWS V13.01,2013-05-29 14:01:00,
2013-05-29 09:06:00,61.0,46.6,29.84,South,177,4.5,4.5,59,0.00,,---,0.00,VWS V13.01,2013-05-29 14:06:00,
2013-05-29 09:11:00,61.2,46.7,29.84,WSW,256,3.6,4.5,59,0.00,,---,0.00,VWS V13.01,2013-05-29 14:11:00,
2013-05-29 09:16:00,61.2,46.7,29.84,SSE,159,5.6,5.6,59,0.00,,---,0.00,VWS V13.01,2013-05-29 14:16:00,
2013-05-29 09:21:00,61.3,46.5,29.84,SSE,159,6.0,6.0,58,0.00,,---,0.00,VWS V13.01,2013-05-29 14:21:00,
2013-05-29 09:26:00,61.3,46.5,29.84,SW,226,6.0,6.0,58,0.00,,---,0.00,VWS V13.01,2013-05-29 14:26:00,
2013-05-29 09:31:00,61.5,46.2,29.84,SSW,201,4.7,5.6,57,0.00,,---,0.00,VWS V13.01,2013-05-29 14:31:00,
2013-05-29 09:36:00,61.5,46.6,29.84,SW,220,6.5,6.5,58,0.00,,---,0.00,VWS V13.01,2013-05-29 14:36:00,
2013-05-29 09:41:00,62.1,47.1,29.84,SSW,205,3.1,5.1,58,0.00,,---,0.00,VWS V13.01,2013-05-29 14:41:00,
2013-05-29 09:46:00,62.2,45.9,29.84,SSW,212,5.1,5.6,55,0.00,,---,0.00,VWS V13.01,2013-05-29 14:46:00,
2013-05-29 09:51:00,62.4,46.1,29.84,WSW,245,0.0,0.0,55,0.00,,---,0.00,VWS V13.01,2013-05-29 14:51:00,
2013-05-29 09:56:00,63.0,45.6,29.84,SE,146,6.9,6.9,53,0.00,,---,0.00,VWS V13.01,2013-05-29 14:56:00,
2013-05-29 10:01:00,63.3,45.4,29.84,South,171,6.0,6.0,52,0.00,,---,0.00,VWS V13.01,2013-05-29 15:01:00,
2013-05-29 10:06:00,63.5,45.6,29.84,SSW,193,4.5,4.5,52,0.00,,---,0.00,VWS V13.01,2013-05-29 15:06:00,
2013-05-29 10:11:00,63.7,45.2,29.84,SSE,149,6.5,6.5,51,0.00,,---,0.00,VWS V13.01,2013-05-29 15:11:00,
2013-05-29 10:16:00,63.9,45.4,29.84,South,173,4.5,6.5,51,0.00,,---,0.00,VWS V13.01,2013-05-29 15:16:00,
2013-05-29 10:22:00,64.0,45.6,29.84,SW,214,7.4,7.8,51,0.00,,---,0.00,VWS V13.01,2013-05-29 15:22:00,
2013-05-29 10:27:00,64.2,45.2,29.84,SSW,195,4.5,5.1,50,0.00,,---,0.00,VWS V13.01,2013-05-29 15:27:00,
2013-05-29 10:32:00,64.6,45.5,29.84,SSE,162,4.5,4.7,50,0.00,,---,0.00,VWS V13.01,2013-05-29 15:32:00,
2013-05-29 10:37:00,65.1,45.5,29.84,SSW,203,0.0,3.6,49,0.00,,---,0.00,VWS V13.01,2013-05-29 15:37:00,
2013-05-29 10:42:00,65.5,45.8,29.84,SW,216,4.7,6.9,49,0.00,,---,0.00,VWS V13.01,2013-05-29 15:42:00,
2013-05-29 10:47:00,66.0,45.8,29.84,SW,234,6.0,6.5,48,0.00,,---,0.00,VWS V13.01,2013-05-29 15:47:00,
2013-05-29 10:52:00,66.2,45.4,29.84,SW,232,6.0,8.7,47,0.00,,---,0.00,VWS V13.01,2013-05-29 15:52:00,
2013-05-29 10:57:00,66.4,45.6,29.84,ESE,121,5.6,8.7,47,0.00,,---,0.00,VWS V13.01,2013-05-29 15:57:00,
2013-05-29 11:02:00,66.9,45.5,29.84,SSW,197,7.8,10.3,46,0.00,,---,0.00,VWS V13.01,2013-05-29 16:02:00,
2013-05-29 11:07:00,66.9,45.5,29.84,West,275,7.8,7.8,46,0.00,,---,0.00,VWS V13.01,2013-05-29 16:07:00,
2013-05-29 11:12:00,67.1,45.7,29.84,SSW,209,7.8,7.8,46,0.00,,---,0.00,VWS V13.01,2013-05-29 16:12:00,
2013-05-29 11:17:00,67.3,45.2,29.84,WSW,245,7.4,7.8,45,0.00,,---,0.00,VWS V13.01,2013-05-29 16:17:00,
2013-05-29 11:22:00,67.6,46.1,29.84,WNW,290,4.5,6.9,46,0.00,,---,0.00,VWS V13.01,2013-05-29 16:22:00,
2013-05-29 11:28:00,67.8,45.7,29.84,South,177,5.6,7.4,45,0.00,,---,0.00,VWS V13.01,2013-05-29 16:28:00,
2013-05-29 11:33:00,68.0,45.3,29.84,SSW,204,4.5,5.6,44,0.00,,---,0.00,VWS V13.01,2013-05-29 16:33:00,
2013-05-29 11:38:00,68.0,45.3,29.84,South,185,6.0,8.3,44,0.00,,---,0.00,VWS V13.01,2013-05-29 16:38:00,
2013-05-29 11:43:00,67.6,45.0,29.84,SSW,210,6.9,7.8,44,0.00,,---,0.00,VWS V13.01,2013-05-29 16:43:00,
2013-05-29 11:48:00,67.6,45.6,29.84,South,170,7.4,7.4,45,0.00,,---,0.00,VWS V13.01,2013-05-29 16:48:00,
2013-05-29 11:53:00,68.0,45.3,29.84,SSW,195,8.9,8.9,44,0.00,,---,0.00,VWS V13.01,2013-05-29 16:53:00,
2013-05-29 11:58:00,68.0,45.9,29.84,SE,128,4.5,6.0,45,0.00,,---,0.00,VWS V13.01,2013-05-29 16:58:00,
2013-05-29 12:03:00,68.4,45.0,29.84,SW,225,9.8,9.8,43,0.00,,---,0.00,VWS V13.01,2013-05-29 17:03:00,
2013-05-29 12:08:00,68.5,45.8,29.84,SW,216,8.3,8.3,44,0.00,,---,0.00,VWS V13.01,2013-05-29 17:08:00,
2013-05-29 12:13:00,68.5,45.2,29.84,WSW,251,6.0,8.9,43,0.00,,---,0.00,VWS V13.01,2013-05-29 17:13:00,
2013-05-29 12:18:00,68.9,45.5,29.84,SW,219,4.7,6.0,43,0.00,,---,0.00,VWS V13.01,2013-05-29 17:18:00,
2013-05-29 12:23:00,69.3,45.8,29.84,SSW,195,5.6,7.4,43,0.00,,---,0.00,VWS V13.01,2013-05-29 17:23:00,
2013-05-29 12:28:00,69.8,45.7,29.84,SW,235,7.4,7.4,42,0.00,,---,0.00,VWS V13.01,2013-05-29 17:28:00,
2013-05-29 12:33:00,70.2,45.4,29.84,SSW,213,4.7,6.0,41,0.00,,---,0.00,VWS V13.01,2013-05-29 17:33:00,
2013-05-29 12:38:00,70.5,45.7,29.84,SSW,210,6.0,7.8,41,0.00,,---,0.00,VWS V13.01,2013-05-29 17:38:00,
2013-05-29 12:43:00,70.5,45.7,29.84,SW,232,8.7,8.7,41,0.00,,---,0.00,VWS V13.01,2013-05-29 17:43:00,
2013-05-29 12:48:00,70.3,45.5,29.84,South,176,6.9,8.7,41,0.00,,---,0.00,VWS V13.01,2013-05-29 17:48:00,
2013-05-29 12:53:00,70.3,46.2,29.84,SSW,206,6.0,8.3,42,0.00,,---,0.00,VWS V13.01,2013-05-29 17:53:00,
2013-05-29 12:59:00,70.7,45.2,29.84,South,181,4.0,4.7,40,0.00,,---,0.00,VWS V13.01,2013-05-29 17:59:00,
2013-05-29 13:04:00,70.9,46.0,29.84,West,277,5.1,5.1,41,0.00,,---,0.00,VWS V13.01,2013-05-29 18:04:00,
2013-05-29 13:09:00,71.1,44.9,29.84,SW,216,5.1,5.1,39,0.00,,---,0.00,VWS V13.01,2013-05-29 18:09:00,
2013-05-29 13:14:00,71.1,44.9,29.84,West,271,3.6,4.5,39,0.00,,---,0.00,VWS V13.01,2013-05-29 18:14:00,
2013-05-29 13:19:00,71.2,45.0,29.84,SW,219,5.6,6.9,39,0.00,,---,0.00,VWS V13.01,2013-05-29 18:19:00,
2013-05-29 13:24:00,71.4,45.9,29.84,WNW,301,0.0,3.6,40,0.00,,---,0.00,VWS V13.01,2013-05-29 18:24:00,
2013-05-29 13:29:00,71.6,44.7,29.84,South,175,0.0,0.0,38,0.00,,---,0.00,VWS V13.01,2013-05-29 18:29:00,
2013-05-29 13:34:00,72.0,45.0,29.84,South,181,5.1,5.1,38,0.00,,---,0.00,VWS V13.01,2013-05-29 18:34:00,
2013-05-29 13:39:00,72.1,45.2,29.84,SE,146,4.5,4.5,38,0.00,,---,0.00,VWS V13.01,2013-05-29 18:39:00,
2013-05-29 13:44:00,72.5,44.8,29.84,SSW,211,5.6,5.6,37,0.00,,---,0.00,VWS V13.01,2013-05-29 18:44:00,
2013-05-29 13:49:00,72.9,44.4,29.84,SE,136,2.7,4.5,36,0.00,,---,0.00,VWS V13.01,2013-05-29 18:49:00,
2013-05-29 13:54:00,73.0,44.5,29.84,SSE,147,5.6,5.6,36,0.00,,---,0.00,VWS V13.01,2013-05-29 18:54:00,
2013-05-29 13:59:00,73.2,44.0,29.81,North,7,0.0,0.0,35,0.00,,---,0.00,VWS V13.01,2013-05-29 18:59:00,
2013-05-29 14:04:00,73.8,43.7,29.81,South,177,6.0,6.5,34,0.00,,---,0.00,VWS V13.01,2013-05-29 19:04:00,
2013-05-29 14:09:00,74.3,44.1,29.81,SSW,210,3.6,3.6,34,0.00,,---,0.00,VWS V13.01,2013-05-29 19:09:00,
2013-05-29 14:14:00,74.7,44.5,29.81,SSW,196,3.1,5.1,34,0.00,,---,0.00,VWS V13.01,2013-05-29 19:14:00,
2013-05-29 14:19:00,75.0,44.8,29.81,ESE,112,3.1,4.5,34,0.00,,---,0.00,VWS V13.01,2013-05-29 19:19:00,
2013-05-29 14:24:00,75.4,43.5,29.81,SW,222,4.5,5.6,32,0.00,,---,0.00,VWS V13.01,2013-05-29 19:24:00,
2013-05-29 14:29:00,75.4,43.5,29.81,SSE,166,3.6,5.1,32,0.00,,---,0.00,VWS V13.01,2013-05-29 19:29:00,
2013-05-29 14:34:00,75.7,43.8,29.81,South,179,3.1,3.6,32,0.00,,---,0.00,VWS V13.01,2013-05-29 19:34:00,
2013-05-29 14:39:00,76.1,44.1,29.81,WSW,237,4.7,4.7,32,0.00,,---,0.00,VWS V13.01,2013-05-29 19:39:00,
2013-05-29 14:44:00,76.3,44.3,29.81,South,176,4.0,4.0,32,0.00,,---,0.00,VWS V13.01,2013-05-29 19:44:00,
2013-05-29 14:49:00,77.0,44.1,29.81,ESE,102,4.0,4.7,31,0.00,,---,0.00,VWS V13.01,2013-05-29 19:49:00,
2013-05-29 14:54:00,77.2,44.2,29.81,South,172,4.7,5.1,31,0.00,,---,0.00,VWS V13.01,2013-05-29 19:54:00,
2013-05-29 14:59:00,77.5,43.7,29.81,ENE,72,0.0,0.0,30,0.00,,---,0.00,VWS V13.01,2013-05-29 19:59:00,
2013-05-29 15:04:00,78.1,44.2,29.81,SSW,198,5.1,6.0,30,0.00,,---,0.00,VWS V13.01,2013-05-29 20:04:00,
2013-05-29 15:09:00,78.6,44.6,29.81,SW,218,4.0,4.0,30,0.00,,---,0.00,VWS V13.01,2013-05-29 20:09:00,
2013-05-29 15:14:00,79.0,44.9,29.81,SW,221,4.7,5.1,30,0.00,,---,0.00,VWS V13.01,2013-05-29 20:14:00,
2013-05-29 15:19:00,79.2,44.2,29.81,South,184,0.0,3.6,29,0.00,,---,0.00,VWS V13.01,2013-05-29 20:19:00,
2013-05-29 15:24:00,79.5,44.5,29.81,SSE,160,4.7,5.1,29,0.00,,---,0.00,VWS V13.01,2013-05-29 20:24:00,
2013-05-29 15:30:00,79.7,42.8,29.78,ESE,112,4.7,4.7,27,0.00,,---,0.00,VWS V13.01,2013-05-29 20:30:00,
2013-05-29 15:35:00,79.5,43.6,29.78,SSE,154,3.6,4.0,28,0.00,,---,0.00,VWS V13.01,2013-05-29 20:35:00,
2013-05-29 15:40:00,79.7,42.8,29.78,SSW,209,4.5,4.5,27,0.00,,---,0.00,VWS V13.01,2013-05-29 20:40:00,
2013-05-29 15:45:00,80.1,43.1,29.78,ESE,114,4.7,6.5,27,0.00,,---,0.00,VWS V13.01,2013-05-29 20:45:00,
2013-05-29 15:50:00,80.2,43.3,29.78,South,187,6.0,6.9,27,0.00,,---,0.00,VWS V13.01,2013-05-29 20:50:00,
2013-05-29 15:55:00,80.4,42.4,29.78,SSE,159,3.6,3.6,26,0.00,,---,0.00,VWS V13.01,2013-05-29 20:55:00,
2013-05-29 16:00:00,80.2,42.3,29.78,ESE,120,0.0,2.7,26,0.00,,---,0.00,VWS V13.01,2013-05-29 21:00:00,
2013-05-29 16:05:00,80.1,42.1,29.78,SSW,204,4.0,6.9,26,0.00,,---,0.00,VWS V13.01,2013-05-29 21:05:00,
2013-05-29 16:10:00,80.1,43.1,29.78,SSW,199,5.1,5.6,27,0.00,,---,0.00,VWS V13.01,2013-05-29 21:10:00,
2013-05-29 16:15:00,80.4,42.4,29.78,NW,304,0.0,0.0,26,0.00,,---,0.00,VWS V13.01,2013-05-29 21:15:00,
2013-05-29 16:20:00,80.8,41.7,29.78,SW,231,4.5,5.6,25,0.00,,---,0.00,VWS V13.01,2013-05-29 21:20:00,
2013-05-29 16:25:00,80.8,41.7,29.78,North,3,4.0,4.5,25,0.00,,---,0.00,VWS V13.01,2013-05-29 21:25:00,
2013-05-29 16:30:00,80.6,41.6,29.78,ESE,119,0.0,2.7,25,0.00,,---,0.00,VWS V13.01,2013-05-29 21:30:00,
2013-05-29 16:35:00,80.6,41.6,29.78,SW,220,3.6,5.1,25,0.00,,---,0.00,VWS V13.01,2013-05-29 21:35:00,
2013-05-29 16:40:00,80.8,40.7,29.78,NE,39,5.6,5.6,24,0.00,,---,0.00,VWS V13.01,2013-05-29 21:40:00,
2013-05-29 16:45:00,80.4,41.4,29.78,ENE,69,2.7,4.5,25,0.00,,---,0.00,VWS V13.01,2013-05-29 21:45:00,
2013-05-29 16:50:00,80.6,41.6,29.78,ENE,59,2.7,4.5,25,0.00,,---,0.00,VWS V13.01,2013-05-29 21:50:00,
2013-05-29 16:55:00,81.0,41.9,29.78,ENE,72,3.6,3.6,25,0.00,,---,0.00,VWS V13.01,2013-05-29 21:55:00,
2013-05-29 17:00:00,81.3,42.2,29.75,ENE,60,4.0,5.1,25,0.00,,---,0.00,VWS V13.01,2013-05-29 22:00:00,
2013-05-29 17:05:00,81.5,42.3,29.75,ESE,119,3.1,3.6,25,0.00,,---,0.00,VWS V13.01,2013-05-29 22:05:00,
2013-05-29 17:10:00,81.1,42.0,29.75,East,95,5.1,5.1,25,0.00,,---,0.00,VWS V13.01,2013-05-29 22:10:00,
2013-05-29 17:15:00,80.4,42.4,29.75,SE,125,3.1,4.5,26,0.00,,---,0.00,VWS V13.01,2013-05-29 22:15:00,
2013-05-29 17:20:00,80.2,42.3,29.75,ENE,61,3.1,4.0,26,0.00,,---,0.00,VWS V13.01,2013-05-29 22:20:00,
2013-05-29 17:25:00,79.7,42.8,29.75,East,82,4.0,5.6,27,0.00,,---,0.00,VWS V13.01,2013-05-29 22:25:00,
2013-05-29 17:30:00,78.6,42.8,29.75,East,82,3.1,4.7,28,0.00,,---,0.00,VWS V13.01,2013-05-29 22:30:00,
2013-05-29 17:35:00,77.4,43.5,29.75,East,86,3.1,3.6,30,0.00,,---,0.00,VWS V13.01,2013-05-29 22:35:00,
2013-05-29 17:40:00,76.5,43.6,29.75,NE,55,3.6,6.0,31,0.00,,---,0.00,VWS V13.01,2013-05-29 22:40:00,
2013-05-29 17:45:00,75.7,43.0,29.75,East,100,4.0,4.5,31,0.00,,---,0.00,VWS V13.01,2013-05-29 22:45:00,
2013-05-29 17:50:00,74.8,43.0,29.75,East,92,4.5,6.0,32,0.00,,---,0.00,VWS V13.01,2013-05-29 22:50:00,
2013-05-29 17:55:00,73.9,42.2,29.75,East,98,5.1,5.1,32,0.00,,---,0.00,VWS V13.01,2013-05-29 22:55:00,
2013-05-29 18:00:00,72.7,42.0,29.75,SE,124,4.0,4.0,33,0.00,,---,0.00,VWS V13.01,2013-05-29 23:00:00,
2013-05-29 18:05:00,72.1,42.2,29.75,ENE,75,3.6,3.6,34,0.00,,---,0.00,VWS V13.01,2013-05-29 23:05:00,
2013-05-29 18:10:00,71.4,42.4,29.75,NNE,27,3.6,3.6,35,0.00,,---,0.00,VWS V13.01,2013-05-29 23:10:00,
2013-05-29 18:15:00,70.3,42.9,29.75,East,99,4.7,5.6,37,0.00,,---,0.00,VWS V13.01,2013-05-29 23:15:00,
2013-05-29 18:20:00,69.3,41.9,29.75,East,84,2.7,3.1,37,0.00,,---,0.00,VWS V13.01,2013-05-29 23:20:00,
2013-05-29 18:25:00,68.4,43.1,29.75,ENE,63,4.0,5.1,40,0.00,,---,0.00,VWS V13.01,2013-05-29 23:25:00,
2013-05-29 18:30:00,67.3,42.8,29.75,NE,40,3.6,4.5,41,0.00,,---,0.00,VWS V13.01,2013-05-29 23:30:00,
2013-05-29 18:35:00,66.4,42.6,29.75,NNE,24,3.6,3.6,42,0.00,,---,0.00,VWS V13.01,2013-05-29 23:35:00,
2013-05-29 18:40:00,65.1,42.7,29.75,ENE,70,4.0,4.0,44,0.00,,---,0.00,VWS V13.01,2013-05-29 23:40:00,
2013-05-29 18:45:00,64.4,42.6,29.75,ENE,66,3.6,3.6,45,0.00,,---,0.00,VWS V13.01,2013-05-29 23:45:00,
2013-05-29 18:50:00,63.7,42.5,29.75,ESE,111,0.0,0.0,46,0.00,,---,0.00,VWS V13.01,2013-05-29 23:50:00,
2013-05-29 18:55:00,63.1,42.6,29.75,ESE,102,4.5,4.5,47,0.00,,---,0.00,VWS V13.01,2013-05-29 23:55:00,
2013-05-29 19:00:00,62.8,42.3,29.75,ESE,116,0.0,0.0,47,0.00,,---,0.00,VWS V13.01,2013-05-30 00:00:00,
2013-05-29 19:05:00,62.4,42.5,29.75,ENE,67,3.1,4.0,48,0.00,,---,0.00,VWS V13.01,2013-05-30 00:05:00,
2013-05-29 19:10:00,61.9,42.5,29.75,NE,45,4.0,4.5,49,0.00,,---,0.00,VWS V13.01,2013-05-30 00:10:00,
2013-05-29 19:15:00,61.3,43.1,29.75,North,357,0.0,0.0,51,0.00,,---,0.00,VWS V13.01,2013-05-30 00:15:00,
2013-05-29 19:20:00,61.0,42.7,29.75,NE,38,0.0,0.0,51,0.00,,---,0.00,VWS V13.01,2013-05-30 00:20:00,
2013-05-29 19:25:00,60.6,43.4,29.75,ENE,62,2.7,2.7,53,0.00,,---,0.00,VWS V13.01,2013-05-30 00:25:00,
2013-05-29 19:30:00,60.6,43.4,29.75,ENE,62,0.0,0.0,53,0.00,,---,0.00,VWS V13.01,2013-05-30 00:30:00,
2013-05-29 19:35:00,60.4,44.2,29.75,ENE,61,4.0,4.5,55,0.00,,---,0.00,VWS V13.01,2013-05-30 00:35:00,
2013-05-29 19:40:00,60.3,44.5,29.75,NE,39,2.7,3.1,56,0.00,,---,0.00,VWS V13.01,2013-05-30 00:40:00,
2013-05-29 19:45:00,60.1,44.3,29.75,NE,46,0.0,0.0,56,0.00,,---,0.00,VWS V13.01,2013-05-30 00:45:00,
2013-05-29 19:50:00,60.1,44.8,29.75,NNE,18,4.5,4.5,57,0.00,,---,0.00,VWS V13.01,2013-05-30 00:50:00,
2013-05-29 19:55:00,60.1,45.3,29.75,NE,35,0.0,0.0,58,0.00,,---,0.00,VWS V13.01,2013-05-30 00:55:00,
2013-05-29 20:00:00,60.1,45.3,29.75,ESE,105,0.0,0.0,58,0.00,,---,0.00,VWS V13.01,2013-05-30 01:00:00,
2013-05-29 20:05:00,60.1,45.3,29.75,NNE,31,0.0,0.0,58,0.00,,---,0.00,VWS V13.01,2013-05-30 01:05:00,
2013-05-29 20:10:00,60.3,45.4,29.75,NE,44,2.7,2.7,58,0.00,,---,0.00,VWS V13.01,2013-05-30 01:10:00,
2013-05-29 20:15:00,60.4,46.1,29.75,NNE,28,4.5,4.5,59,0.00,,---,0.00,VWS V13.01,2013-05-30 01:15:00,
2013-05-29 20:20:00,60.6,45.8,29.75,NNE,33,3.6,3.6,58,0.00,,---,0.00,VWS V13.01,2013-05-30 01:20:00,
2013-05-29 20:25:00,60.6,45.8,29.75,NE,56,3.1,4.0,58,0.00,,---,0.00,VWS V13.01,2013-05-30 01:25:00,
2013-05-29 20:30:00,60.6,45.8,29.75,ENE,69,0.0,0.0,58,0.00,,---,0.00,VWS V13.01,2013-05-30 01:30:00,
2013-05-29 20:35:00,60.6,45.8,29.75,NE,44,3.6,4.5,58,0.00,,---,0.00,VWS V13.01,2013-05-30 01:35:00,
2013-05-29 20:40:00,60.8,46.0,29.75,NNE,32,0.0,0.0,58,0.00,,---,0.00,VWS V13.01,2013-05-30 01:40:00,
2013-05-29 20:45:00,60.6,45.8,29.75,North,4,0.0,0.0,58,0.00,,---,0.00,VWS V13.01,2013-05-30 01:45:00,
2013-05-29 20:50:00,60.6,45.8,29.75,North,2,4.0,4.7,58,0.00,,---,0.00,VWS V13.01,2013-05-30 01:50:00,
2013-05-29 20:55:00,60.6,46.2,29.75,NE,41,0.0,3.1,59,0.00,,---,0.00,VWS V13.01,2013-05-30 01:55:00,
2013-05-29 21:00:00,60.6,46.2,29.75,NNE,20,3.6,4.0,59,0.00,,---,0.00,VWS V13.01,2013-05-30 02:00:00,
2013-05-29 21:05:00,60.6,46.2,29.75,NNE,20,4.0,4.0,59,0.00,,---,0.00,VWS V13.01,2013-05-30 02:05:00,
2013-05-29 21:10:00,60.6,46.2,29.75,NNE,20,0.0,0.0,59,0.00,,---,0.00,VWS V13.01,2013-05-30 02:10:00,
2013-05-29 21:15:00,60.6,46.2,29.75,NNE,20,0.0,0.0,59,0.00,,---,0.00,VWS V13.01,2013-05-30 02:15:00,
2013-05-29 21:20:00,60.4,46.5,29.75,NNE,20,0.0,0.0,60,0.00,,---,0.00,VWS V13.01,2013-05-30 02:20:00,
2013-05-29 21:25:00,60.4,46.5,29.75,NNE,20,0.0,0.0,60,0.00,,---,0.00,VWS V13.01,2013-05-30 02:25:00,
2013-05-29 21:30:00,60.4,46.5,29.75,NNE,20,0.0,0.0,60,0.00,,---,0.00,VWS V13.01,2013-05-30 02:30:00,
2013-05-29 21:36:00,60.4,46.5,29.75,NNE,20,0.0,0.0,60,0.00,,---,0.00,VWS V13.01,2013-05-30 02:36:00,
2013-05-29 21:41:00,60.3,46.3,29.75,NNE,20,0.0,0.0,60,0.00,,---,0.00,VWS V13.01,2013-05-30 02:41:00,
2013-05-29 21:46:00,60.3,46.3,29.78,NNE,20,0.0,0.0,60,0.00,,---,0.00,VWS V13.01,2013-05-30 02:46:00,
2013-05-29 21:51:00,60.3,46.8,29.78,South,183,0.0,3.1,61,0.00,,---,0.00,VWS V13.01,2013-05-30 02:51:00,
2013-05-29 21:56:00,60.3,46.8,29.78,SSE,162,0.0,0.0,61,0.00,,---,0.00,VWS V13.01,2013-05-30 02:56:00,
2013-05-29 22:01:00,60.4,46.9,29.78,SSE,162,0.0,0.0,61,0.00,,---,0.00,VWS V13.01,2013-05-30 03:01:00,
2013-05-29 22:06:00,60.4,46.9,29.78,ENE,69,0.0,0.0,61,0.00,,---,0.00,VWS V13.01,2013-05-30 03:06:00,
2013-05-29 22:11:00,60.4,46.9,29.78,ENE,69,0.0,0.0,61,0.00,,---,0.00,VWS V13.01,2013-05-30 03:11:00,
2013-05-29 22:16:00,60.4,46.9,29.78,ENE,69,0.0,0.0,61,0.00,,---,0.00,VWS V13.01,2013-05-30 03:16:00,
2013-05-29 22:21:00,60.4,46.9,29.78,ENE,69,0.0,0.0,61,0.00,,---,0.00,VWS V13.01,2013-05-30 03:21:00,
2013-05-29 22:26:00,60.3,46.8,29.78,ENE,69,0.0,0.0,61,0.00,,---,0.00,VWS V13.01,2013-05-30 03:26:00,
2013-05-29 22:31:00,60.3,46.8,29.78,ENE,69,0.0,0.0,61,0.00,,---,0.00,VWS V13.01,2013-05-30 03:31:00,
2013-05-29 22:36:00,60.3,46.8,29.78,ENE,69,0.0,0.0,61,0.00,,---,0.00,VWS V13.01,2013-05-30 03:36:00,
2013-05-29 22:41:00,60.3,46.8,29.78,ENE,69,0.0,0.0,61,0.00,,---,0.00,VWS V13.01,2013-05-30 03:41:00,
2013-05-29 22:46:00,60.3,47.2,29.78,ENE,69,0.0,0.0,62,0.00,,---,0.00,VWS V13.01,2013-05-30 03:46:00,
2013-05-29 22:51:00,60.3,47.2,29.78,ENE,69,0.0,0.0,62,0.00,,---,0.00,VWS V13.01,2013-05-30 03:51:00,
2013-05-29 22:56:00,60.3,47.2,29.78,ENE,69,0.0,0.0,62,0.00,,---,0.00,VWS V13.01,2013-05-30 03:56:00,
2013-05-29 23:01:00,60.3,47.2,29.81,ENE,69,0.0,0.0,62,0.00,,---,0.00,VWS V13.01,2013-05-30 04:01:00,
2013-05-29 23:02:00,60.3,47.2,29.81,ENE,69,0.0,0.0,62,0.00,,---,0.00,VWS V13.01,2013-05-30 04:02:00,
2013-05-29 23:03:00,60.3,47.2,29.81,ENE,69,0.0,0.0,62,0.00,,---,0.00,VWS V13.01,2013-05-30 04:03:00,
2013-05-29 23:08:00,60.3,47.2,29.81,ENE,69,0.0,0.0,62,0.00,,---,0.00,VWS V13.01,2013-05-30 04:08:00,
2013-05-29 23:13:00,60.1,47.0,29.81,ENE,69,0.0,0.0,62,0.00,,---,0.00,VWS V13.01,2013-05-30 04:13:00,
2013-05-29 23:18:00,60.1,47.5,29.81,ENE,69,0.0,0.0,63,0.00,,---,0.00,VWS V13.01,2013-05-30 04:18:00,
2013-05-29 23:23:00,60.1,47.5,29.81,ENE,69,0.0,0.0,63,0.00,,---,0.00,VWS V13.01,2013-05-30 04:23:00,
2013-05-29 23:28:00,60.1,47.5,29.81,ENE,69,0.0,0.0,63,0.00,,---,0.00,VWS V13.01,2013-05-30 04:28:00,
2013-05-29 23:33:00,60.1,47.5,29.81,ENE,69,0.0,0.0,63,0.00,,---,0.00,VWS V13.01,2013-05-30 04:33:00,
2013-05-29 23:38:00,60.1,47.9,29.81,ESE,119,0.0,0.0,64,0.00,,---,0.00,VWS V13.01,2013-05-30 04:38:00,
2013-05-29 23:43:00,60.3,48.0,29.78,ESE,119,0.0,0.0,64,0.00,,---,0.00,VWS V13.01,2013-05-30 04:43:00,
2013-05-29 23:48:00,60.4,48.6,29.78,ESE,119,0.0,0.0,65,0.00,,---,0.00,VWS V13.01,2013-05-30 04:48:00,
2013-05-29 23:53:00,60.4,48.6,29.78,ESE,119,0.0,0.0,65,0.00,,---,0.00,VWS V13.01,2013-05-30 04:53:00,
2013-05-29 23:58:00,60.3,48.0,29.78,ESE,119,0.0,0.0,64,0.00,,---,0.00,VWS V13.01,2013-05-30 04:58:00,